Time;durP1;ratioP1;P1;durP2;ratioP2;P2;SDS_P1;SDS_P2;PMS_P1;PMS_P2;Temp;Humidity;BMP_temperature;BMP_pressure;BME280_temperature;BME280_humidity;BME280_pressure;Samples;Min_cycle;Max_cycle;Signal;HPM_P1;HPM_P2
2023/04/23 00:01:26;;;;;;;80.07;48.08;;;10.40;99.90;;;;;;5011602;28;20048;-82
2023/04/23 00:03:56;;;;;;;81.07;47.97;;;10.30;99.90;;;;;;5014899;28;20022;-82
2023/04/23 00:06:25;;;;;;;84.63;48.20;;;10.30;99.90;;;;;;5015059;28;20465;-82
2023/04/23 00:08:52;;;;;;;78.70;45.88;;;10.40;99.90;;;;;;5015382;28;20135;-82
2023/04/23 00:11:18;;;;;;;89.20;50.58;;;10.30;99.90;;;;;;5014138;28;20030;-82
2023/04/23 00:13:45;;;;;;;87.35;48.15;;;10.30;99.90;;;;;;5015083;28;20041;-82
2023/04/23 00:16:12;;;;;;;85.55;47.45;;;10.20;99.90;;;;;;5015054;28;20037;-82
2023/04/23 00:18:37;;;;;;;87.15;49.42;;;10.20;99.90;;;;;;5014293;28;20030;-82
2023/04/23 00:21:03;;;;;;;80.13;48.20;;;10.10;99.90;;;;;;5014927;28;20088;-82
2023/04/23 00:23:28;;;;;;;88.50;48.72;;;10.20;99.90;;;;;;5014900;28;20155;-82
2023/04/23 00:25:54;;;;;;;75.93;46.10;;;10.10;99.90;;;;;;5014178;28;20025;-82
2023/04/23 00:28:20;;;;;;;82.32;47.38;;;10.10;99.90;;;;;;5014528;28;20375;-83
2023/04/23 00:30:45;;;;;;;77.20;47.40;;;10.20;99.90;;;;;;5015161;28;20030;-83
2023/04/23 00:33:11;;;;;;;75.90;46.47;;;10.10;99.90;;;;;;5013996;28;20390;-83
2023/04/23 00:35:36;;;;;;;76.45;47.22;;;10.20;99.90;;;;;;5014731;28;20409;-83
2023/04/23 00:38:02;;;;;;;74.25;44.75;;;10.20;99.90;;;;;;5013807;28;20450;-82
2023/04/23 00:40:28;;;;;;;78.90;47.58;;;10.10;99.90;;;;;;5014621;28;20099;-82
2023/04/23 00:42:55;;;;;;;79.63;47.47;;;10.00;99.90;;;;;;5014683;28;20049;-82
2023/04/23 00:45:21;;;;;;;80.80;48.70;;;10.10;99.90;;;;;;5013768;28;20128;-82
2023/04/23 00:47:48;;;;;;;82.55;48.70;;;10.10;99.90;;;;;;5014481;28;20128;-82
2023/04/23 00:50:13;;;;;;;74.32;45.10;;;10.10;99.90;;;;;;5014415;28;20033;-82
2023/04/23 00:52:39;;;;;;;78.50;46.65;;;10.20;99.90;;;;;;5013569;28;20022;-82
2023/04/23 00:55:07;;;;;;;75.25;44.63;;;10.20;99.90;;;;;;5013934;28;20125;-82
2023/04/23 00:57:33;;;;;;;84.60;45.90;;;10.10;99.90;;;;;;5014194;28;20363;-82
2023/04/23 00:59:59;;;;;;;73.72;44.30;;;10.20;99.90;;;;;;5013993;28;20037;-82
2023/04/23 01:02:27;;;;;;;67.72;42.13;;;10.20;99.90;;;;;;5014338;28;20069;-83
2023/04/23 01:04:54;;;;;;;65.70;41.17;;;10.20;99.90;;;;;;5014306;28;20100;-82
2023/04/23 01:07:20;;;;;;;65.10;40.30;;;10.30;99.90;;;;;;5013238;28;20341;-82
2023/04/23 01:09:46;;;;;;;66.47;41.42;;;10.30;99.90;;;;;;5014023;28;20026;-82
2023/04/23 01:12:14;;;;;;;62.05;39.70;;;10.20;99.90;;;;;;5013369;28;20025;-82
2023/04/23 01:14:41;;;;;;;63.05;40.20;;;10.20;99.90;;;;;;5013254;28;20046;-82
2023/04/23 01:17:07;;;;;;;67.95;40.08;;;10.20;99.90;;;;;;5013711;28;20029;-82
2023/04/23 01:19:33;;;;;;;61.15;40.05;;;10.20;99.90;;;;;;5014012;28;20030;-81
2023/04/23 01:22:00;;;;;;;60.50;38.47;;;10.10;99.90;;;;;;5013732;28;20105;-82
2023/04/23 01:24:30;;;;;;;61.05;37.63;;;10.10;99.90;;;;;;5013748;28;20101;-81
2023/04/23 01:26:57;;;;;;;62.17;38.00;;;10.00;99.90;;;;;;5014089;28;20068;-82
2023/04/23 01:29:24;;;;;;;63.03;36.83;;;10.00;99.90;;;;;;5012367;28;20033;-81
2023/04/23 01:31:50;;;;;;;61.95;39.80;;;10.20;99.90;;;;;;5013741;28;20030;-82
2023/04/23 01:34:16;;;;;;;60.92;36.03;;;10.00;99.90;;;;;;5012705;28;20415;-82
2023/04/23 01:36:42;;;;;;;53.25;34.70;;;9.90;99.90;;;;;;5013686;28;20048;-81
2023/04/23 01:39:08;;;;;;;55.15;35.95;;;9.90;99.90;;;;;;5013235;28;20040;-82
2023/04/23 01:41:34;;;;;;;55.58;35.42;;;10.00;99.90;;;;;;5012655;28;20065;-81
2023/04/23 01:44:01;;;;;;;50.20;32.60;;;10.00;99.90;;;;;;5013445;28;20108;-82
2023/04/23 01:46:27;;;;;;;52.47;35.33;;;10.10;99.90;;;;;;5013531;28;20107;-82
2023/04/23 01:48:52;;;;;;;57.30;36.15;;;10.10;99.90;;;;;;5012745;28;20022;-82
2023/04/23 01:51:18;;;;;;;51.30;32.83;;;10.10;99.90;;;;;;5012576;28;20029;-82
2023/04/23 01:53:44;;;;;;;51.35;33.28;;;10.10;99.90;;;;;;5013213;28;20114;-82
2023/04/23 01:56:10;;;;;;;51.53;33.15;;;10.10;99.90;;;;;;5012066;28;20057;-82
2023/04/23 01:58:36;;;;;;;50.10;34.03;;;10.10;99.90;;;;;;5012755;28;20500;-82
2023/04/23 02:01:01;;;;;;;50.10;33.03;;;10.10;99.90;;;;;;5012972;28;20030;-82
2023/04/23 02:03:32;;;;;;;52.95;32.72;;;10.10;99.90;;;;;;5012487;28;20025;-82
2023/04/23 02:05:58;;;;;;;;;;;10.10;99.90;;;;;;5013475;28;20378;-82
2023/04/23 02:08:26;;;;;;;51.15;33.00;;;10.00;99.90;;;;;;5012818;28;20322;-83
2023/04/23 02:10:51;;;;;;;49.35;30.92;;;10.10;99.90;;;;;;5012531;28;20448;-82
2023/04/23 02:13:17;;;;;;;46.72;30.88;;;10.20;99.90;;;;;;5012474;28;20026;-81
2023/04/23 02:15:42;;;;;;;45.30;30.92;;;10.10;99.90;;;;;;5012820;28;20061;-81
2023/04/23 02:18:09;;;;;;;44.20;30.55;;;10.10;99.90;;;;;;5012134;28;20029;-82
2023/04/23 02:20:37;;;;;;;43.47;30.23;;;10.20;99.90;;;;;;5024263;28;20064;-82
2023/04/23 02:23:03;;;;;;;44.13;29.25;;;10.20;99.90;;;;;;5032267;28;20117;-82
2023/04/23 02:25:30;;;;;;;47.72;31.02;;;10.30;99.90;;;;;;5031463;28;20112;-82
2023/04/23 02:27:56;;;;;;;44.53;30.52;;;10.30;99.90;;;;;;5031903;28;20033;-81
2023/04/23 02:30:22;;;;;;;40.63;29.17;;;10.40;99.90;;;;;;5032132;28;20071;-81
2023/04/23 02:32:47;;;;;;;40.55;29.52;;;10.20;99.90;;;;;;5031779;28;20044;-81
2023/04/23 02:35:13;;;;;;;44.33;30.65;;;10.20;99.90;;;;;;5032053;28;20049;-82
2023/04/23 02:37:38;;;;;;;43.60;30.45;;;10.40;99.90;;;;;;5031357;28;20028;-82
2023/04/23 02:40:05;;;;;;;36.67;27.45;;;10.30;99.90;;;;;;5032255;28;20033;-82
2023/04/23 02:42:31;;;;;;;39.20;27.63;;;10.30;99.90;;;;;;5032560;28;20079;-82
2023/04/23 02:44:56;;;;;;;36.35;25.75;;;10.40;99.90;;;;;;5031463;28;20783;-82
2023/04/23 02:47:22;;;;;;;37.40;26.63;;;10.40;99.90;;;;;;5031852;28;20101;-82
2023/04/23 02:49:47;;;;;;;32.92;24.83;;;10.30;99.90;;;;;;5031997;28;20033;-82
2023/04/23 02:52:13;;;;;;;39.72;27.63;;;10.40;99.90;;;;;;5031125;28;20039;-82
2023/04/23 02:54:38;;;;;;;37.10;25.73;;;10.40;99.90;;;;;;5031991;28;20060;-82
2023/04/23 02:57:04;;;;;;;32.38;24.33;;;10.40;99.90;;;;;;5031642;28;20025;-82
2023/04/23 02:59:30;;;;;;;30.10;23.23;;;10.50;99.90;;;;;;5031367;28;20076;-82
2023/04/23 03:01:56;;;;;;;33.95;24.45;;;10.50;99.90;;;;;;5032337;28;20420;-82
2023/04/23 03:04:22;;;;;;;30.60;24.63;;;10.50;99.90;;;;;;5031691;28;20026;-83
2023/04/23 03:06:48;;;;;;;31.55;23.73;;;10.50;99.90;;;;;;5031267;28;20076;-83
2023/04/23 03:09:14;;;;;;;34.70;23.27;;;10.60;99.90;;;;;;5031886;28;20033;-82
2023/04/23 03:11:39;;;;;;;30.05;22.55;;;10.70;99.90;;;;;;5032065;28;20100;-81
2023/04/23 03:14:05;;;;;;;31.63;22.15;;;10.80;99.90;;;;;;5030975;28;20109;-81
2023/04/23 03:16:31;;;;;;;32.78;22.63;;;10.80;99.90;;;;;;5031689;28;20398;-81
2023/04/23 03:18:58;;;;;;;28.27;22.67;;;10.80;99.90;;;;;;5031993;28;20072;-82
2023/04/23 03:21:23;;;;;;;30.55;23.17;;;10.80;99.90;;;;;;5030686;28;20030;-82
2023/04/23 03:23:49;;;;;;;26.83;22.80;;;10.80;99.90;;;;;;5032120;28;20043;-82
2023/04/23 03:26:14;;;;;;;27.15;22.83;;;10.90;99.90;;;;;;5031895;28;20045;-82
2023/04/23 03:28:40;;;;;;;30.98;22.27;;;11.30;99.90;;;;;;5030734;28;20030;-82
2023/04/23 03:31:05;;;;;;;27.52;22.05;;;10.90;99.90;;;;;;5031364;28;20025;-81
2023/04/23 03:33:31;;;;;;;28.58;21.63;;;10.90;99.90;;;;;;5031564;28;20116;-82
2023/04/23 03:35:57;;;;;;;27.42;20.92;;;10.80;99.90;;;;;;5030915;28;20069;-82
2023/04/23 03:38:22;;;;;;;27.27;22.75;;;10.70;99.90;;;;;;5035060;28;20041;-81
2023/04/23 03:40:48;;;;;;;24.85;21.42;;;10.80;99.90;;;;;;5035666;28;20109;-81
2023/04/23 03:43:13;;;;;;;27.08;21.85;;;10.70;99.90;;;;;;5016577;28;20033;-81
2023/04/23 03:45:39;;;;;;;27.02;22.00;;;10.60;99.90;;;;;;5015471;28;20532;-83
2023/04/23 03:48:04;;;;;;;27.23;22.38;;;10.50;99.90;;;;;;5014647;28;20406;-82
2023/04/23 03:50:33;;;;;;;36.55;23.83;;;10.50;99.90;;;;;;5015421;28;20030;-82
2023/04/23 03:53:00;;;;;;;28.85;22.67;;;10.70;99.90;;;;;;5034896;28;20428;-81
2023/04/23 03:55:25;;;;;;;30.85;22.45;;;10.50;99.90;;;;;;5034474;28;20131;-81
2023/04/23 03:57:51;;;;;;;27.20;22.55;;;10.50;99.90;;;;;;5035504;28;20067;-81
2023/04/23 04:00:16;;;;;;;29.33;22.60;;;10.60;99.90;;;;;;5034849;28;20037;-81
2023/04/23 04:02:42;;;;;;;29.08;23.00;;;10.60;99.90;;;;;;5034424;28;20025;-82
2023/04/23 04:05:09;;;;;;;27.48;21.52;;;10.60;99.90;;;;;;5035120;28;20031;-81
2023/04/23 04:07:36;;;;;;;27.02;22.63;;;10.70;99.90;;;;;;5034838;28;20021;-81
2023/04/23 04:10:02;;;;;;;31.15;22.75;;;10.80;99.90;;;;;;5034232;28;20103;-81
2023/04/23 04:12:28;;;;;;;25.48;20.67;;;10.70;99.90;;;;;;5034883;28;20525;-81
2023/04/23 04:14:53;;;;;;;27.30;22.00;;;10.80;99.90;;;;;;5034620;28;20087;-81
2023/04/23 04:17:19;;;;;;;30.85;22.80;;;10.90;99.90;;;;;;5014776;28;20025;-81
2023/04/23 04:19:45;;;;;;;27.05;22.40;;;10.90;99.90;;;;;;5015039;28;20385;-81
2023/04/23 04:22:10;;;;;;;25.55;21.80;;;10.80;99.90;;;;;;5014588;28;20489;-82
2023/04/23 04:24:36;;;;;;;27.98;21.88;;;10.90;99.90;;;;;;5014099;28;20144;-81
2023/04/23 04:27:03;;;;;;;26.77;22.70;;;10.90;99.90;;;;;;5014593;28;20057;-81
2023/04/23 04:29:30;;;;;;;31.83;23.25;;;11.00;99.90;;;;;;5014794;28;20034;-82
2023/04/23 04:31:56;;;;;;;28.17;21.38;;;11.00;99.90;;;;;;5014057;28;20025;-81
2023/04/23 04:34:22;;;;;;;25.13;21.60;;;11.00;99.90;;;;;;5014514;28;20030;-81
2023/04/23 04:36:48;;;;;;;25.67;21.48;;;11.20;99.90;;;;;;5014840;28;20470;-82
2023/04/23 04:39:13;;;;;;;23.52;21.02;;;11.00;99.90;;;;;;5013783;28;20117;-81
2023/04/23 04:41:40;;;;;;;26.02;21.70;;;11.10;99.90;;;;;;5014536;28;20108;-82
2023/04/23 04:44:09;;;;;;;32.97;22.63;;;10.90;99.90;;;;;;5013980;28;20540;-82
2023/04/23 04:46:39;;;;;;;31.35;21.90;;;10.80;99.90;;;;;;5014102;28;20030;-83
2023/04/23 04:49:08;;;;;;;24.15;21.40;;;10.80;99.90;;;;;;5014346;28;20049;-83
2023/04/23 04:51:35;;;;;;;28.95;20.58;;;10.70;99.90;;;;;;5013948;28;20037;-83
2023/04/23 04:54:01;;;;;;;26.98;22.45;;;10.70;99.90;;;;;;5013898;28;20034;-82
2023/04/23 04:56:26;;;;;;;25.83;21.55;;;10.70;99.90;;;;;;5014155;28;20187;-82
2023/04/23 04:58:52;;;;;;;26.25;21.30;;;10.70;99.90;;;;;;5013602;28;20033;-82
2023/04/23 05:01:20;;;;;;;25.63;21.02;;;10.70;99.90;;;;;;5025884;28;20587;-82
2023/04/23 05:03:45;;;;;;;25.83;21.45;;;10.70;99.90;;;;;;5013613;28;20021;-82
2023/04/23 05:06:11;;;;;;;25.70;21.15;;;10.80;99.90;;;;;;5012999;28;20033;-82
2023/04/23 05:08:37;;;;;;;25.90;20.27;;;10.80;99.90;;;;;;5013714;28;20040;-82
2023/04/23 05:11:02;;;;;;;25.98;21.55;;;10.80;99.90;;;;;;5013457;28;20084;-82
2023/04/23 05:13:28;;;;;;;26.55;20.77;;;10.80;99.90;;;;;;5013135;28;20113;-82
2023/04/23 05:15:54;;;;;;;25.23;20.42;;;10.90;99.90;;;;;;5014094;28;20045;-83
2023/04/23 05:18:20;;;;;;;27.13;20.92;;;10.90;99.90;;;;;;5013722;28;20030;-83
2023/04/23 05:20:45;;;;;;;25.40;21.35;;;10.90;99.90;;;;;;5013081;28;20026;-83
2023/04/23 05:23:11;;;;;;;25.15;19.58;;;10.90;99.90;;;;;;5013794;28;20057;-83
2023/04/23 05:25:36;;;;;;;24.67;20.33;;;11.00;99.90;;;;;;5013695;28;20034;-83
2023/04/23 05:28:02;;;;;;;23.52;20.23;;;11.10;99.90;;;;;;5012403;28;20029;-83
2023/04/23 05:30:28;;;;;;;24.85;19.48;;;11.00;99.90;;;;;;5013425;28;20125;-83
2023/04/23 05:32:53;;;;;;;26.38;21.05;;;11.10;99.90;;;;;;5013943;28;20030;-83
2023/04/23 05:35:19;;;;;;;24.10;20.08;;;11.20;99.90;;;;;;5012384;28;20046;-83
2023/04/23 05:37:44;;;;;;;22.17;19.80;;;11.10;99.90;;;;;;5013492;28;20084;-83
2023/04/23 05:40:10;;;;;;;22.60;19.45;;;11.20;99.90;;;;;;5013101;28;20030;-82
2023/04/23 05:42:36;;;;;;;24.67;19.35;;;11.20;99.90;;;;;;5012307;28;20035;-83
2023/04/23 05:45:02;;;;;;;25.08;19.70;;;11.10;99.90;;;;;;5012681;28;20099;-83
2023/04/23 05:47:28;;;;;;;25.15;19.40;;;11.20;99.90;;;;;;5013259;28;20022;-82
2023/04/23 05:49:56;;;;;;;22.77;19.55;;;11.10;99.90;;;;;;5013110;28;20018;-82
2023/04/23 05:52:22;;;;;;;25.42;20.50;;;11.10;99.90;;;;;;5005188;28;20034;-83
2023/04/23 05:54:47;;;;;;;21.75;18.38;;;11.20;99.90;;;;;;5002885;28;20073;-83
2023/04/23 05:57:13;;;;;;;21.08;18.80;;;11.30;99.90;;;;;;5001802;28;20393;-83
2023/04/23 05:59:38;;;;;;;21.80;18.92;;;11.30;99.90;;;;;;5001895;28;20022;-83
2023/04/23 06:02:04;;;;;;;21.42;18.63;;;11.30;99.90;;;;;;5002729;28;20071;-81
2023/04/23 06:04:30;;;;;;;24.30;18.63;;;11.30;99.90;;;;;;5003073;28;20058;-82
2023/04/23 06:06:55;;;;;;;23.88;19.00;;;11.30;99.90;;;;;;5001995;28;20538;-81
2023/04/23 06:09:21;;;;;;;20.88;18.58;;;11.30;99.90;;;;;;5002133;28;20029;-81
2023/04/23 06:11:49;;;;;;;22.90;18.45;;;11.30;99.90;;;;;;5003326;28;20057;-81
2023/04/23 06:14:15;;;;;;;24.10;19.02;;;11.30;99.90;;;;;;5002431;28;20033;-81
2023/04/23 06:16:40;;;;;;;20.13;17.95;;;11.30;99.90;;;;;;5007281;28;20486;-81
2023/04/23 06:19:06;;;;;;;23.33;18.40;;;11.40;99.90;;;;;;5009896;28;20053;-81
2023/04/23 06:21:32;;;;;;;20.08;17.67;;;11.40;99.90;;;;;;5006331;28;20790;-81
2023/04/23 06:23:57;;;;;;;22.20;17.23;;;11.40;99.90;;;;;;5012944;28;20570;-81
2023/04/23 06:26:23;;;;;;;19.02;17.00;;;11.80;99.90;;;;;;5011112;28;20359;-81
2023/04/23 06:28:48;;;;;;;19.67;17.00;;;11.40;99.90;;;;;;5024573;28;20430;-81
2023/04/23 06:31:14;;;;;;;21.45;16.73;;;11.40;99.90;;;;;;5028245;28;20048;-81
2023/04/23 06:33:40;;;;;;;22.42;17.23;;;11.50;99.90;;;;;;5011933;28;20028;-81
2023/04/23 06:36:09;;;;;;;21.40;16.58;;;11.50;99.90;;;;;;5015589;28;20575;-81
2023/04/23 06:38:35;;;;;;;18.33;16.17;;;11.50;99.90;;;;;;5015665;28;20440;-81
2023/04/23 06:41:01;;;;;;;19.23;15.95;;;11.60;99.90;;;;;;5012219;28;20041;-81
2023/04/23 06:43:27;;;;;;;20.92;16.13;;;11.60;99.90;;;;;;5015946;28;20040;-81
2023/04/23 06:45:52;;;;;;;17.73;15.93;;;11.60;99.90;;;;;;5019704;28;20038;-81
2023/04/23 06:48:19;;;;;;;19.20;15.52;;;11.70;99.90;;;;;;5011159;28;20026;-81
2023/04/23 06:50:45;;;;;;;17.17;15.38;;;11.70;99.90;;;;;;5015944;28;20417;-81
2023/04/23 06:53:11;;;;;;;18.27;15.55;;;11.70;99.90;;;;;;5010411;28;20026;-81
2023/04/23 06:55:36;;;;;;;21.45;15.18;;;11.70;99.90;;;;;;5016049;28;20068;-81
2023/04/23 06:58:02;;;;;;;19.17;15.50;;;11.70;99.90;;;;;;5004234;28;20485;-83
2023/04/23 07:00:28;;;;;;;17.85;14.40;;;11.70;99.90;;;;;;5012392;28;20029;-81
2023/04/23 07:02:53;;;;;;;17.58;14.75;;;12.30;99.90;;;;;;5012123;28;20025;-82
2023/04/23 07:05:19;;;;;;;16.85;13.25;;;11.80;99.90;;;;;;5010140;28;20121;-83
2023/04/23 07:07:45;;;;;;;16.95;13.48;;;11.90;99.90;;;;;;5015192;28;20024;-83
2023/04/23 07:10:11;;;;;;;16.63;13.15;;;11.90;99.90;;;;;;5014978;28;20124;-82
2023/04/23 07:12:37;;;;;;;15.80;12.63;;;12.00;99.90;;;;;;5031260;28;20053;-83
2023/04/23 07:15:05;;;;;;;18.20;12.98;;;11.90;99.90;;;;;;5030712;28;20033;-82
2023/04/23 07:17:30;;;;;;;15.13;12.43;;;11.90;99.90;;;;;;5020351;28;20030;-83
2023/04/23 07:19:56;;;;;;;15.82;12.25;;;11.90;99.90;;;;;;5015007;28;20125;-82
2023/04/23 07:22:23;;;;;;;15.43;12.68;;;11.90;99.90;;;;;;5014846;28;20026;-82
2023/04/23 07:24:48;;;;;;;17.02;12.52;;;12.00;99.90;;;;;;5015926;28;20030;-82
2023/04/23 07:27:14;;;;;;;17.63;11.45;;;12.00;99.90;;;;;;5010290;28;20022;-82
2023/04/23 07:29:40;;;;;;;17.42;11.98;;;12.10;99.90;;;;;;5005714;28;20022;-83
2023/04/23 07:32:05;;;;;;;15.32;11.90;;;12.00;99.90;;;;;;5004385;28;20019;-82
2023/04/23 07:34:31;;;;;;;15.68;11.90;;;12.10;99.90;;;;;;5005553;28;20022;-82
2023/04/23 07:36:56;;;;;;;15.20;10.85;;;12.10;99.90;;;;;;5004379;28;20037;-83
2023/04/23 07:39:22;;;;;;;15.95;10.63;;;12.10;99.90;;;;;;5002151;28;20517;-82
2023/04/23 07:41:48;;;;;;;11.48;9.80;;;12.20;99.90;;;;;;5004131;28;20044;-83
2023/04/23 07:44:13;;;;;;;14.07;9.98;;;12.20;99.90;;;;;;5005999;28;20140;-83
2023/04/23 07:46:39;;;;;;;19.40;10.05;;;12.30;99.90;;;;;;5004244;28;20390;-83
2023/04/23 07:49:05;;;;;;;12.80;10.48;;;12.30;99.90;;;;;;5011576;28;20022;-83
2023/04/23 07:51:31;;;;;;;19.27;9.63;;;12.30;99.90;;;;;;5014765;28;20030;-83
2023/04/23 07:53:57;;;;;;;19.42;9.25;;;12.40;99.90;;;;;;5014810;28;20124;-83
2023/04/23 07:56:23;;;;;;;17.40;8.93;;;12.30;99.90;;;;;;5014827;28;20121;-83
2023/04/23 07:58:49;;;;;;;11.85;8.60;;;12.40;99.90;;;;;;5015398;28;20026;-83
2023/04/23 08:01:15;;;;;;;13.75;8.73;;;12.40;99.90;;;;;;5014259;28;20030;-82
2023/04/23 08:03:41;;;;;;;16.77;9.40;;;12.50;99.90;;;;;;5015285;28;20025;-83
2023/04/23 08:06:09;;;;;;;11.50;8.52;;;12.50;99.90;;;;;;5014835;28;20065;-83
2023/04/23 08:08:34;;;;;;;10.80;9.02;;;12.50;99.90;;;;;;5014451;28;20022;-84
2023/04/23 08:11:00;;;;;;;14.88;9.02;;;12.90;99.90;;;;;;5011974;28;20083;-84
2023/04/23 08:13:26;;;;;;;13.15;8.30;;;12.50;99.90;;;;;;5015361;28;20022;-83
2023/04/23 08:15:51;;;;;;;16.08;8.10;;;12.40;99.90;;;;;;5012361;28;20135;-84
2023/04/23 08:18:17;;;;;;;14.63;7.85;;;12.60;99.90;;;;;;5003061;28;20028;-85
2023/04/23 08:20:43;;;;;;;20.33;9.75;;;12.60;99.90;;;;;;4994873;28;20036;-84
2023/04/23 08:23:08;;;;;;;13.68;8.00;;;12.60;99.90;;;;;;4993659;28;20024;-84
2023/04/23 08:25:34;;;;;;;15.32;7.00;;;12.60;99.90;;;;;;4994412;28;20053;-83
2023/04/23 08:27:59;;;;;;;11.52;6.93;;;12.60;99.90;;;;;;4994911;28;20026;-85
2023/04/23 08:30:25;;;;;;;17.63;7.75;;;12.70;99.90;;;;;;4995095;28;20497;-82
2023/04/23 08:32:55;;;;;;;10.68;6.60;;;12.60;99.90;;;;;;4994829;28;20430;-86
2023/04/23 08:35:22;;;;;;;11.80;7.57;;;12.70;99.90;;;;;;4994682;28;20041;-86
2023/04/23 08:37:47;;;;;;;15.00;7.70;;;12.80;99.90;;;;;;4996099;28;20258;-86
2023/04/23 08:40:13;;;;;;;18.42;7.85;;;12.80;99.90;;;;;;4995675;28;20029;-87
2023/04/23 08:42:47;;;;;;;14.75;8.10;;;12.80;99.90;;;;;;4995082;28;20034;-86
2023/04/23 08:45:13;;;;;;;13.75;7.53;;;12.80;99.90;;;;;;4994428;28;20433;-83
2023/04/23 08:47:41;;;;;;;19.00;7.00;;;13.20;99.90;;;;;;4994745;28;20026;-83
2023/04/23 08:50:11;;;;;;;11.23;6.97;;;12.80;99.90;;;;;;4993987;28;20137;-83
2023/04/23 08:52:41;;;;;;;15.00;6.30;;;12.80;99.90;;;;;;4993361;28;20363;-83
2023/04/23 08:55:11;;;;;;;16.03;5.57;;;12.90;99.90;;;;;;4993097;28;20564;-83
2023/04/23 08:57:40;;;;;;;12.75;5.25;;;12.90;99.90;;;;;;4993834;28;20038;-84
2023/04/23 09:00:09;;;;;;;18.90;5.72;;;13.00;99.90;;;;;;4997206;28;20492;-84
2023/04/23 09:02:35;;;;;;;10.80;5.57;;;13.00;99.90;;;;;;5034046;28;20030;-87
2023/04/23 09:05:04;;;;;;;16.33;5.32;;;13.10;99.90;;;;;;5032597;28;20056;-86
2023/04/23 09:07:30;;;;;;;14.68;6.03;;;13.10;99.90;;;;;;5033963;28;20037;-86
2023/04/23 09:09:56;;;;;;;14.25;5.22;;;13.10;99.90;;;;;;5010285;28;20500;-85
2023/04/23 09:12:22;;;;;;;13.07;4.75;;;13.10;99.90;;;;;;5004912;28;20079;-84
2023/04/23 09:14:49;;;;;;;14.90;5.55;;;13.20;99.90;;;;;;5002264;28;20018;-85
2023/04/23 09:17:18;;;;;;;12.95;5.45;;;13.20;99.90;;;;;;4994026;28;20038;-84
2023/04/23 09:19:48;;;;;;;7.68;4.75;;;13.30;99.90;;;;;;5006331;28;20033;-85
2023/04/23 09:22:13;;;;;;;16.33;5.90;;;13.30;99.90;;;;;;4999891;28;20031;-84
2023/04/23 09:24:42;;;;;;;13.80;5.38;;;13.30;99.90;;;;;;5005756;28;20109;-82
2023/04/23 09:27:08;;;;;;;12.93;5.38;;;13.30;99.90;;;;;;5000943;28;20030;-83
2023/04/23 09:29:34;;;;;;;15.63;5.20;;;13.30;99.90;;;;;;5006136;28;20037;-82
2023/04/23 09:32:09;;;;;;;13.57;5.03;;;13.30;99.90;;;;;;5003818;28;20029;-84
2023/04/23 09:34:40;;;;;;;19.45;5.20;;;13.40;99.90;;;;;;5005453;28;20054;-84
2023/04/23 09:37:09;;;;;;;10.75;4.63;;;13.40;99.90;;;;;;5006942;28;20393;-84
2023/04/23 09:39:35;;;;;;;16.73;5.30;;;13.40;99.90;;;;;;5001772;28;20044;-84
2023/04/23 09:42:04;;;;;;;13.50;5.40;;;13.50;99.90;;;;;;5006140;28;20049;-84
2023/04/23 09:44:32;;;;;;;10.07;4.85;;;13.40;99.90;;;;;;5002132;28;20442;-84
2023/04/23 09:47:08;;;;;;;12.02;5.63;;;13.50;99.90;;;;;;5003239;28;20053;-83
2023/04/23 09:49:48;;;;;;;12.05;4.07;;;13.50;99.90;;;;;;4996138;28;20048;-84
2023/04/23 09:52:13;;;;;;;10.80;4.22;;;13.50;99.90;;;;;;4993143;28;20034;-84
2023/04/23 09:54:39;;;;;;;14.80;4.78;;;13.50;99.90;;;;;;4992351;28;20093;-85
2023/04/23 09:57:07;;;;;;;16.15;4.53;;;13.60;99.90;;;;;;5004060;28;20538;-81
2023/04/23 09:59:35;;;;;;;7.97;4.00;;;13.60;99.90;;;;;;5004357;28;20034;-83
2023/04/23 10:02:02;;;;;;;9.48;3.58;;;13.60;99.90;;;;;;5003448;28;20041;-82
2023/04/23 10:04:28;;;;;;;8.95;3.65;;;13.70;99.90;;;;;;5007960;28;20049;-83
2023/04/23 10:06:58;;;;;;;13.85;4.35;;;13.80;99.90;;;;;;5004177;28;20418;-83
2023/04/23 10:09:25;;;;;;;13.25;3.50;;;13.80;99.90;;;;;;5001655;28;20030;-82
2023/04/23 10:11:52;;;;;;;9.27;4.13;;;14.00;99.90;;;;;;5002968;28;20042;-82
2023/04/23 10:14:20;;;;;;;15.80;5.13;;;13.80;99.90;;;;;;5005951;28;20052;-83
2023/04/23 10:16:46;;;;;;;14.38;5.05;;;13.90;99.90;;;;;;4999598;28;20088;-83
2023/04/23 10:19:16;;;;;;;14.15;4.13;;;13.80;99.90;;;;;;5006735;28;20075;-83
2023/04/23 10:21:45;;;;;;;19.45;5.00;;;13.90;99.90;;;;;;5002019;28;20029;-83
2023/04/23 10:24:12;;;;;;;8.30;3.42;;;13.90;99.90;;;;;;5002439;28;20078;-82
2023/04/23 10:26:41;;;;;;;8.48;3.67;;;14.00;99.90;;;;;;5000866;28;20026;-82
2023/04/23 10:29:13;;;;;;;11.68;3.97;;;14.00;99.90;;;;;;5001130;28;20124;-83
2023/04/23 10:31:40;;;;;;;10.55;2.83;;;14.20;99.90;;;;;;5001384;28;20144;-83
2023/04/23 10:34:07;;;;;;;11.98;2.97;;;14.20;99.90;;;;;;4995909;28;20026;-84
2023/04/23 10:36:33;;;;;;;7.07;2.50;;;14.10;99.90;;;;;;4991433;28;20485;-82
2023/04/23 10:39:03;;;;;;;12.00;3.25;;;14.20;99.90;;;;;;4999930;28;20041;-83
2023/04/23 10:41:35;;;;;;;9.65;3.30;;;14.20;99.90;;;;;;4996436;28;20030;-82
2023/04/23 10:44:02;;;;;;;7.05;2.53;;;14.30;99.90;;;;;;4996886;28;20112;-83
2023/04/23 10:46:32;;;;;;;11.05;4.47;;;14.20;99.90;;;;;;5001927;28;20029;-83
2023/04/23 10:49:24;;;;;;;9.52;3.45;;;14.30;99.90;;;;;;5000809;28;20011;-82
2023/04/23 10:52:00;;;;;;;9.60;2.70;;;14.30;99.90;;;;;;4998333;28;20497;-83
2023/04/23 10:54:31;;;;;;;6.70;2.28;;;14.40;99.90;;;;;;5000835;28;20438;-83
2023/04/23 10:57:05;;;;;;;7.53;2.40;;;14.40;99.90;;;;;;4999883;28;20050;-82
2023/04/23 10:59:33;;;;;;;5.75;1.98;;;14.40;99.90;;;;;;4992587;28;20062;-83
2023/04/23 11:02:11;;;;;;;9.55;2.55;;;14.50;99.90;;;;;;4992814;28;20506;-82
2023/04/23 11:05:07;;;;;;;10.45;2.08;;;14.50;99.90;;;;;;4991936;28;20494;-81
2023/04/23 11:07:33;;;;;;;3.75;2.05;;;14.50;99.90;;;;;;4984436;28;20105;-82
2023/04/23 11:10:20;;;;;;;8.25;2.38;;;14.60;99.90;;;;;;4992516;28;20105;-81
2023/04/23 11:12:45;;;;;;;7.53;1.77;;;14.60;99.90;;;;;;4991261;28;20026;-81
2023/04/23 11:15:13;;;;;;;5.68;2.03;;;14.60;99.90;;;;;;4992319;28;20390;-82
2023/04/23 11:17:41;;;;;;;4.80;2.20;;;14.70;99.90;;;;;;4992404;28;20120;-81
2023/04/23 11:20:12;;;;;;;9.07;2.00;;;14.70;99.90;;;;;;4991393;28;20038;-82
2023/04/23 11:22:51;;;;;;;6.40;2.20;;;14.60;99.90;;;;;;4992426;28;20066;-82
2023/04/23 11:25:22;;;;;;;5.43;2.00;;;14.60;99.90;;;;;;4991608;28;20045;-83
2023/04/23 11:27:50;;;;;;;5.10;1.80;;;14.60;99.90;;;;;;4992447;28;20030;-82
2023/04/23 11:30:27;;;;;;;8.38;2.05;;;14.70;99.90;;;;;;4992089;28;20394;-83
2023/04/23 11:32:55;;;;;;;8.88;2.38;;;14.70;99.90;;;;;;4991724;28;20059;-82
2023/04/23 11:35:36;;;;;;;8.90;3.45;;;14.70;99.90;;;;;;4992251;28;20042;-81
2023/04/23 11:38:07;;;;;;;8.30;2.58;;;14.70;99.90;;;;;;4992214;28;20033;-81
2023/04/23 11:40:33;;;;;;;5.72;1.80;;;14.70;99.90;;;;;;4994534;28;20125;-82
2023/04/23 11:42:59;;;;;;;6.97;1.80;;;14.70;99.90;;;;;;4998419;28;20168;-81
2023/04/23 11:45:27;;;;;;;7.20;2.00;;;14.70;99.90;;;;;;4992476;28;20106;-81
2023/04/23 11:47:55;;;;;;;7.78;2.15;;;14.80;99.90;;;;;;5010094;28;20022;-81
2023/04/23 11:50:26;;;;;;;7.40;2.08;;;14.80;99.90;;;;;;5011296;28;20026;-81
2023/04/23 11:52:53;;;;;;;10.27;2.33;;;14.90;99.90;;;;;;5011346;28;20018;-82
2023/04/23 11:55:19;;;;;;;7.82;2.35;;;14.90;99.90;;;;;;5009796;28;20053;-81
2023/04/23 11:57:47;;;;;;;5.53;1.83;;;15.00;99.90;;;;;;5012185;28;20028;-83
2023/04/23 12:00:17;;;;;;;7.00;2.17;;;14.90;99.90;;;;;;5014436;28;20036;-82
2023/04/23 12:02:57;;;;;;;6.28;2.00;;;14.90;99.90;;;;;;5001399;28;20113;-83
2023/04/23 12:05:27;;;;;;;8.10;2.20;;;14.90;99.90;;;;;;5010933;28;20478;-83
2023/04/23 12:07:53;;;;;;;6.18;1.65;;;15.00;99.90;;;;;;4994738;28;20022;-82
2023/04/23 12:10:20;;;;;;;6.38;1.63;;;15.00;99.90;;;;;;5008190;28;20456;-82
2023/04/23 12:12:52;;;;;;;6.45;1.52;;;15.10;99.90;;;;;;5015139;28;20026;-83
2023/04/23 12:15:18;;;;;;;6.28;1.90;;;15.10;99.90;;;;;;5023689;28;20041;-82
2023/04/23 12:17:50;;;;;;;8.90;1.70;;;15.00;99.90;;;;;;5013009;28;20034;-82
2023/04/23 12:20:20;;;;;;;6.97;1.70;;;15.10;99.90;;;;;;5014293;28;20041;-82
2023/04/23 12:22:47;;;;;;;9.73;2.85;;;15.10;99.90;;;;;;5013990;28;20045;-83
2023/04/23 12:25:12;;;;;;;3.78;1.50;;;15.10;99.90;;;;;;5014496;28;20030;-82
2023/04/23 12:27:40;;;;;;;9.27;1.77;;;15.10;99.90;;;;;;5001626;28;20068;-83
2023/04/23 12:30:07;;;;;;;7.85;1.80;;;15.10;99.90;;;;;;5013756;28;20030;-83
2023/04/23 12:32:33;;;;;;;6.18;2.15;;;15.00;99.90;;;;;;5010511;28;20114;-82